EmailTwitter


Observations de surface / Québec / LFRQ

Régions: Québec | Canada | États-Unis | Europe | France | UK | Elsewhere
Station
Affichage
Infos & localisation pour LFRQ | Aide pour décoder les METARs

Observations prises le 2017-05-26 à 01H30 UTC à QUIMPER/PLUGUFFA, FR (LFRQ)

Température: 20.0 Celsius

Point de rosée: 14.0 Celsius

Humidité relative: 68%

Vents: Est-sud-est à 11 km/h ou 6 noeuds.

Pression au niveau moyen de la mer: 101.40 kilopascals.

Observation METAR:

LFRQ 260130Z AUTO 11006KT 080V140 CAVOK 20/14 Q1014=